Etusivu
METAR-TAF:

METAR-TAF

Lentoasemat :

Kärdlan lentoasema

Kärdla, Viro

Leveyspiiri: 58-59N, Pituuspiiri: 022-49E, korkeus merenpinnasta: 5 m

Tämänhetkinen sää

Tämä raportti tehtiin 51 minuuttia sitten, kello 11.50 UTC
Tuuli 13 kn luoteesta
Lämpötila 11°C
Kosteus 58%
Ilmanpaine 1022 hPa
Näkyvyys 10 km tai enemmän
Hajonneita pilviä 3000 ft:n korkeudessa

METAR: EEKA 251150Z 31013KT 9999 BKN030 11/03 Q1022

Aika: 15:41 (12:41 UTC)

Sääennuste

Tämä raportti tehtiin 41 minuuttia sitten, kello 12.00 UTC
Ennuste voimassa 25. päivästä klo 13 UTC - 25. päivään klo 19 UTC
Tuuli 15 kn luoteesta
Näkyvyys 10 km tai enemmän
Hajonneita pilviä 3000 ft:n korkeudessa

TAF: EEKA 251200Z 2513/2519 31015KT 9999 BKN030

Säähavainnot ja -ennusteet yli 4000 lentoasemalta (METAR- ja TAF-raportit).

Käytössä olevat sääasemat on merkitty karttaan keltaisilla ja punaisilla pisteillä.

Aseta hiiri pisteen päälle nähdäksesi sääaseman nimen.

Klikkaa sitten nähdäksesi säähavainnot ja -ennusteet.

Kartan vaihtaminen: klikkaa mustalla rastilla varustettuja vihreitä pisteitä, niin voit zoomata sisään; viivalla varustettua vihreää pistettä, niin voit zoomata ulos tai vihreitä nuolia, niin pääset viereisille kartoille.


METAR-TAF: